sensor_id;sensor_type;location;lat;lon;timestamp;P1;durP1;ratioP1;P2;durP2;ratioP2
7503;SDS011;3793;48.136;11.536;2022-12-11T00:02:20;40.17;;;22.60;;
7503;SDS011;3793;48.136;11.536;2022-12-11T00:04:47;36.20;;;21.23;;
7503;SDS011;3793;48.136;11.536;2022-12-11T00:07:13;84.40;;;54.50;;
7503;SDS011;3793;48.136;11.536;2022-12-11T00:09:41;40.17;;;22.43;;
7503;SDS011;3793;48.136;11.536;2022-12-11T00:12:08;33.27;;;20.30;;
7503;SDS011;3793;48.136;11.536;2022-12-11T00:14:34;33.63;;;20.57;;
7503;SDS011;3793;48.136;11.536;2022-12-11T00:17:01;34.23;;;21.10;;
7503;SDS011;3793;48.136;11.536;2022-12-11T00:19:28;36.87;;;21.37;;
7503;SDS011;3793;48.136;11.536;2022-12-11T00:21:54;33.70;;;19.83;;
7503;SDS011;3793;48.136;11.536;2022-12-11T00:24:21;35.73;;;22.53;;
7503;SDS011;3793;48.136;11.536;2022-12-11T00:26:49;84.07;;;50.23;;
7503;SDS011;3793;48.136;11.536;2022-12-11T00:29:16;42.93;;;26.47;;
7503;SDS011;3793;48.136;11.536;2022-12-11T00:31:42;34.23;;;20.50;;
7503;SDS011;3793;48.136;11.536;2022-12-11T00:34:09;32.67;;;19.90;;
7503;SDS011;3793;48.136;11.536;2022-12-11T00:36:36;33.57;;;20.37;;
7503;SDS011;3793;48.136;11.536;2022-12-11T00:39:03;32.23;;;19.70;;
7503;SDS011;3793;48.136;11.536;2022-12-11T00:41:30;31.83;;;19.63;;
7503;SDS011;3793;48.136;11.536;2022-12-11T00:43:58;33.60;;;20.03;;
7503;SDS011;3793;48.136;11.536;2022-12-11T00:46:24;31.03;;;18.90;;
7503;SDS011;3793;48.136;11.536;2022-12-11T00:48:51;31.43;;;19.63;;
7503;SDS011;3793;48.136;11.536;2022-12-11T00:51:18;29.37;;;18.10;;
7503;SDS011;3793;48.136;11.536;2022-12-11T00:53:44;29.77;;;18.50;;
7503;SDS011;3793;48.136;11.536;2022-12-11T00:56:12;29.77;;;19.07;;
7503;SDS011;3793;48.136;11.536;2022-12-11T00:58:38;28.63;;;18.40;;
7503;SDS011;3793;48.136;11.536;2022-12-11T01:01:07;27.90;;;17.47;;
7503;SDS011;3793;48.136;11.536;2022-12-11T01:03:34;30.43;;;17.63;;
7503;SDS011;3793;48.136;11.536;2022-12-11T01:06:00;28.83;;;17.93;;
7503;SDS011;3793;48.136;11.536;2022-12-11T01:08:27;25.07;;;16.70;;
7503;SDS011;3793;48.136;11.536;2022-12-11T01:10:59;27.67;;;17.87;;
7503;SDS011;3793;48.136;11.536;2022-12-11T01:13:25;29.30;;;18.90;;
7503;SDS011;3793;48.136;11.536;2022-12-11T01:15:51;29.33;;;17.93;;
7503;SDS011;3793;48.136;11.536;2022-12-11T01:18:19;31.10;;;18.60;;
7503;SDS011;3793;48.136;11.536;2022-12-11T01:20:46;29.20;;;17.87;;
7503;SDS011;3793;48.136;11.536;2022-12-11T01:23:13;30.90;;;18.70;;
7503;SDS011;3793;48.136;11.536;2022-12-11T01:25:39;29.33;;;17.90;;
7503;SDS011;3793;48.136;11.536;2022-12-11T01:28:06;27.60;;;17.00;;
7503;SDS011;3793;48.136;11.536;2022-12-11T01:30:33;29.07;;;17.33;;
7503;SDS011;3793;48.136;11.536;2022-12-11T01:33:00;26.60;;;18.07;;
7503;SDS011;3793;48.136;11.536;2022-12-11T01:35:28;28.57;;;17.83;;
7503;SDS011;3793;48.136;11.536;2022-12-11T01:37:55;26.93;;;17.07;;
7503;SDS011;3793;48.136;11.536;2022-12-11T01:40:21;29.37;;;17.40;;
7503;SDS011;3793;48.136;11.536;2022-12-11T01:42:48;26.33;;;16.80;;
7503;SDS011;3793;48.136;11.536;2022-12-11T01:45:25;28.77;;;17.47;;
7503;SDS011;3793;48.136;11.536;2022-12-11T01:47:54;28.63;;;17.70;;
7503;SDS011;3793;48.136;11.536;2022-12-11T01:50:21;28.97;;;16.47;;
7503;SDS011;3793;48.136;11.536;2022-12-11T01:52:50;29.43;;;16.30;;
7503;SDS011;3793;48.136;11.536;2022-12-11T01:55:17;27.00;;;16.60;;
7503;SDS011;3793;48.136;11.536;2022-12-11T01:57:44;27.67;;;15.77;;
7503;SDS011;3793;48.136;11.536;2022-12-11T02:00:12;26.70;;;15.70;;
7503;SDS011;3793;48.136;11.536;2022-12-11T02:02:39;25.50;;;15.13;;
7503;SDS011;3793;48.136;11.536;2022-12-11T02:05:06;30.93;;;17.30;;
7503;SDS011;3793;48.136;11.536;2022-12-11T02:07:34;28.07;;;16.33;;
7503;SDS011;3793;48.136;11.536;2022-12-11T02:10:03;26.47;;;15.70;;
7503;SDS011;3793;48.136;11.536;2022-12-11T02:12:32;25.17;;;15.73;;
7503;SDS011;3793;48.136;11.536;2022-12-11T02:15:03;22.80;;;14.87;;
7503;SDS011;3793;48.136;11.536;2022-12-11T02:17:32;25.83;;;15.40;;
7503;SDS011;3793;48.136;11.536;2022-12-11T02:20:02;25.97;;;16.50;;
7503;SDS011;3793;48.136;11.536;2022-12-11T02:22:34;26.33;;;16.30;;
7503;SDS011;3793;48.136;11.536;2022-12-11T02:25:05;26.37;;;16.00;;
7503;SDS011;3793;48.136;11.536;2022-12-11T02:27:35;23.63;;;14.80;;
7503;SDS011;3793;48.136;11.536;2022-12-11T02:30:05;25.73;;;15.67;;
7503;SDS011;3793;48.136;11.536;2022-12-11T02:32:33;23.27;;;15.30;;
7503;SDS011;3793;48.136;11.536;2022-12-11T02:35:03;23.03;;;14.93;;
7503;SDS011;3793;48.136;11.536;2022-12-11T02:37:31;23.80;;;15.67;;
7503;SDS011;3793;48.136;11.536;2022-12-11T02:40:01;24.03;;;16.03;;
7503;SDS011;3793;48.136;11.536;2022-12-11T02:42:29;24.57;;;15.73;;
7503;SDS011;3793;48.136;11.536;2022-12-11T02:44:57;24.47;;;15.17;;
7503;SDS011;3793;48.136;11.536;2022-12-11T02:47:26;22.53;;;15.53;;
7503;SDS011;3793;48.136;11.536;2022-12-11T02:49:56;23.67;;;14.43;;
7503;SDS011;3793;48.136;11.536;2022-12-11T02:52:23;24.30;;;14.93;;
7503;SDS011;3793;48.136;11.536;2022-12-11T02:54:50;25.57;;;15.50;;
7503;SDS011;3793;48.136;11.536;2022-12-11T02:57:21;26.07;;;15.53;;
7503;SDS011;3793;48.136;11.536;2022-12-11T02:59:49;25.60;;;15.70;;
7503;SDS011;3793;48.136;11.536;2022-12-11T03:02:16;24.17;;;14.60;;
7503;SDS011;3793;48.136;11.536;2022-12-11T03:04:44;25.67;;;15.87;;
7503;SDS011;3793;48.136;11.536;2022-12-11T03:07:12;21.97;;;13.83;;
7503;SDS011;3793;48.136;11.536;2022-12-11T03:09:42;22.63;;;15.00;;
7503;SDS011;3793;48.136;11.536;2022-12-11T03:12:10;26.70;;;14.93;;
7503;SDS011;3793;48.136;11.536;2022-12-11T03:14:37;22.57;;;14.60;;
7503;SDS011;3793;48.136;11.536;2022-12-11T03:17:07;23.43;;;14.93;;
7503;SDS011;3793;48.136;11.536;2022-12-11T03:19:37;21.57;;;14.20;;
7503;SDS011;3793;48.136;11.536;2022-12-11T03:22:08;27.20;;;15.47;;
7503;SDS011;3793;48.136;11.536;2022-12-11T03:24:37;24.43;;;15.63;;
7503;SDS011;3793;48.136;11.536;2022-12-11T03:27:05;22.10;;;14.17;;
7503;SDS011;3793;48.136;11.536;2022-12-11T03:29:35;20.63;;;13.27;;
7503;SDS011;3793;48.136;11.536;2022-12-11T03:32:04;20.43;;;13.37;;
7503;SDS011;3793;48.136;11.536;2022-12-11T03:34:32;20.43;;;13.20;;
7503;SDS011;3793;48.136;11.536;2022-12-11T03:37:03;19.67;;;13.90;;
7503;SDS011;3793;48.136;11.536;2022-12-11T03:39:34;20.53;;;13.73;;
7503;SDS011;3793;48.136;11.536;2022-12-11T03:42:03;20.70;;;13.03;;
7503;SDS011;3793;48.136;11.536;2022-12-11T03:44:31;18.90;;;12.47;;
7503;SDS011;3793;48.136;11.536;2022-12-11T03:46:59;22.00;;;14.07;;
7503;SDS011;3793;48.136;11.536;2022-12-11T03:49:27;21.27;;;13.77;;
7503;SDS011;3793;48.136;11.536;2022-12-11T03:51:55;20.47;;;13.17;;
7503;SDS011;3793;48.136;11.536;2022-12-11T03:54:23;20.07;;;12.53;;
7503;SDS011;3793;48.136;11.536;2022-12-11T03:56:52;19.03;;;12.53;;
7503;SDS011;3793;48.136;11.536;2022-12-11T03:59:20;20.03;;;12.53;;
7503;SDS011;3793;48.136;11.536;2022-12-11T04:01:47;19.13;;;12.30;;
7503;SDS011;3793;48.136;11.536;2022-12-11T04:04:13;17.93;;;12.63;;
7503;SDS011;3793;48.136;11.536;2022-12-11T04:06:40;20.47;;;12.33;;
7503;SDS011;3793;48.136;11.536;2022-12-11T04:09:06;19.20;;;12.97;;
7503;SDS011;3793;48.136;11.536;2022-12-11T04:11:33;18.57;;;12.20;;
7503;SDS011;3793;48.136;11.536;2022-12-11T04:14:01;16.73;;;12.00;;
7503;SDS011;3793;48.136;11.536;2022-12-11T04:16:45;19.30;;;12.10;;
7503;SDS011;3793;48.136;11.536;2022-12-11T04:19:12;18.30;;;12.23;;
7503;SDS011;3793;48.136;11.536;2022-12-11T04:21:56;19.90;;;12.90;;
7503;SDS011;3793;48.136;11.536;2022-12-11T04:24:40;19.43;;;12.20;;
7503;SDS011;3793;48.136;11.536;2022-12-11T04:27:06;22.13;;;13.73;;
7503;SDS011;3793;48.136;11.536;2022-12-11T04:29:34;18.93;;;12.43;;
7503;SDS011;3793;48.136;11.536;2022-12-11T04:32:01;18.37;;;12.43;;
7503;SDS011;3793;48.136;11.536;2022-12-11T04:34:28;19.73;;;12.00;;
7503;SDS011;3793;48.136;11.536;2022-12-11T04:36:54;23.10;;;14.17;;
7503;SDS011;3793;48.136;11.536;2022-12-11T04:39:21;19.47;;;13.60;;
7503;SDS011;3793;48.136;11.536;2022-12-11T04:41:47;21.07;;;13.67;;
7503;SDS011;3793;48.136;11.536;2022-12-11T04:44:14;19.43;;;13.40;;
7503;SDS011;3793;48.136;11.536;2022-12-11T04:46:42;20.57;;;12.90;;
7503;SDS011;3793;48.136;11.536;2022-12-11T04:49:09;19.47;;;13.00;;
7503;SDS011;3793;48.136;11.536;2022-12-11T04:51:35;20.37;;;13.40;;
7503;SDS011;3793;48.136;11.536;2022-12-11T04:54:02;20.13;;;13.27;;
7503;SDS011;3793;48.136;11.536;2022-12-11T04:56:28;18.47;;;12.57;;
7503;SDS011;3793;48.136;11.536;2022-12-11T04:58:55;17.67;;;11.70;;
7503;SDS011;3793;48.136;11.536;2022-12-11T05:01:21;19.20;;;10.63;;
7503;SDS011;3793;48.136;11.536;2022-12-11T05:03:49;14.27;;;9.30;;
7503;SDS011;3793;48.136;11.536;2022-12-11T05:06:16;15.77;;;10.10;;
7503;SDS011;3793;48.136;11.536;2022-12-11T05:08:43;17.23;;;11.80;;
7503;SDS011;3793;48.136;11.536;2022-12-11T05:11:11;17.07;;;11.37;;
7503;SDS011;3793;48.136;11.536;2022-12-11T05:13:38;17.53;;;10.73;;
7503;SDS011;3793;48.136;11.536;2022-12-11T05:16:05;15.73;;;10.67;;
7503;SDS011;3793;48.136;11.536;2022-12-11T05:18:32;19.03;;;11.70;;
7503;SDS011;3793;48.136;11.536;2022-12-11T05:21:01;18.43;;;12.10;;
7503;SDS011;3793;48.136;11.536;2022-12-11T05:23:28;14.97;;;9.90;;
7503;SDS011;3793;48.136;11.536;2022-12-11T05:25:55;13.53;;;9.23;;
7503;SDS011;3793;48.136;11.536;2022-12-11T05:28:22;16.50;;;10.57;;
7503;SDS011;3793;48.136;11.536;2022-12-11T05:30:53;13.13;;;9.30;;
7503;SDS011;3793;48.136;11.536;2022-12-11T05:33:20;16.47;;;10.57;;
7503;SDS011;3793;48.136;11.536;2022-12-11T05:35:47;16.10;;;10.63;;
7503;SDS011;3793;48.136;11.536;2022-12-11T05:38:15;15.87;;;9.80;;
7503;SDS011;3793;48.136;11.536;2022-12-11T05:40:41;14.57;;;9.80;;
7503;SDS011;3793;48.136;11.536;2022-12-11T05:43:08;14.27;;;8.40;;
7503;SDS011;3793;48.136;11.536;2022-12-11T05:45:35;13.13;;;8.93;;
7503;SDS011;3793;48.136;11.536;2022-12-11T05:48:01;12.00;;;8.30;;
7503;SDS011;3793;48.136;11.536;2022-12-11T05:50:28;9.57;;;7.27;;
7503;SDS011;3793;48.136;11.536;2022-12-11T05:52:54;12.60;;;8.30;;
7503;SDS011;3793;48.136;11.536;2022-12-11T05:55:22;12.50;;;8.07;;
7503;SDS011;3793;48.136;11.536;2022-12-11T05:57:49;12.17;;;8.50;;
7503;SDS011;3793;48.136;11.536;2022-12-11T06:00:15;15.83;;;9.60;;
7503;SDS011;3793;48.136;11.536;2022-12-11T06:02:42;14.07;;;9.90;;
7503;SDS011;3793;48.136;11.536;2022-12-11T06:05:09;14.47;;;9.40;;
7503;SDS011;3793;48.136;11.536;2022-12-11T06:07:35;12.07;;;9.13;;
7503;SDS011;3793;48.136;11.536;2022-12-11T06:10:02;14.63;;;10.10;;
7503;SDS011;3793;48.136;11.536;2022-12-11T06:12:30;18.13;;;10.40;;
7503;SDS011;3793;48.136;11.536;2022-12-11T06:14:56;16.50;;;9.73;;
7503;SDS011;3793;48.136;11.536;2022-12-11T06:17:23;15.43;;;10.37;;
7503;SDS011;3793;48.136;11.536;2022-12-11T06:19:49;15.00;;;9.53;;
7503;SDS011;3793;48.136;11.536;2022-12-11T06:22:16;15.60;;;10.20;;
7503;SDS011;3793;48.136;11.536;2022-12-11T06:24:42;15.83;;;10.77;;
7503;SDS011;3793;48.136;11.536;2022-12-11T06:27:09;17.50;;;11.37;;
7503;SDS011;3793;48.136;11.536;2022-12-11T06:29:37;16.40;;;10.80;;
7503;SDS011;3793;48.136;11.536;2022-12-11T06:32:04;18.00;;;11.70;;
7503;SDS011;3793;48.136;11.536;2022-12-11T06:34:31;20.37;;;12.07;;
7503;SDS011;3793;48.136;11.536;2022-12-11T06:36:57;17.80;;;11.40;;
7503;SDS011;3793;48.136;11.536;2022-12-11T06:39:23;20.33;;;12.17;;
7503;SDS011;3793;48.136;11.536;2022-12-11T06:41:50;20.83;;;12.20;;
7503;SDS011;3793;48.136;11.536;2022-12-11T06:44:17;16.80;;;11.73;;
7503;SDS011;3793;48.136;11.536;2022-12-11T06:46:45;21.23;;;12.97;;
7503;SDS011;3793;48.136;11.536;2022-12-11T06:49:11;18.87;;;11.53;;
7503;SDS011;3793;48.136;11.536;2022-12-11T06:51:38;19.60;;;12.80;;
7503;SDS011;3793;48.136;11.536;2022-12-11T06:54:04;19.57;;;12.27;;
7503;SDS011;3793;48.136;11.536;2022-12-11T06:56:32;17.60;;;11.77;;
7503;SDS011;3793;48.136;11.536;2022-12-11T06:58:59;24.27;;;12.83;;
7503;SDS011;3793;48.136;11.536;2022-12-11T07:01:26;22.77;;;13.90;;
7503;SDS011;3793;48.136;11.536;2022-12-11T07:03:54;19.93;;;12.13;;
7503;SDS011;3793;48.136;11.536;2022-12-11T07:06:21;18.43;;;12.50;;
7503;SDS011;3793;48.136;11.536;2022-12-11T07:08:48;21.57;;;12.57;;
7503;SDS011;3793;48.136;11.536;2022-12-11T07:11:15;19.97;;;12.97;;
7503;SDS011;3793;48.136;11.536;2022-12-11T07:13:42;19.27;;;12.47;;
7503;SDS011;3793;48.136;11.536;2022-12-11T07:16:09;22.57;;;12.47;;
7503;SDS011;3793;48.136;11.536;2022-12-11T07:18:36;19.50;;;12.97;;
7503;SDS011;3793;48.136;11.536;2022-12-11T07:21:05;20.67;;;12.97;;
7503;SDS011;3793;48.136;11.536;2022-12-11T07:23:32;20.67;;;12.53;;
7503;SDS011;3793;48.136;11.536;2022-12-11T07:26:02;19.57;;;12.77;;
7503;SDS011;3793;48.136;11.536;2022-12-11T07:28:29;23.53;;;13.00;;
7503;SDS011;3793;48.136;11.536;2022-12-11T07:30:55;19.53;;;12.60;;
7503;SDS011;3793;48.136;11.536;2022-12-11T07:33:22;19.13;;;13.07;;
7503;SDS011;3793;48.136;11.536;2022-12-11T07:35:48;21.10;;;13.60;;
7503;SDS011;3793;48.136;11.536;2022-12-11T07:38:16;20.93;;;12.13;;
7503;SDS011;3793;48.136;11.536;2022-12-11T07:40:43;19.37;;;12.83;;
7503;SDS011;3793;48.136;11.536;2022-12-11T07:43:09;19.83;;;12.70;;
7503;SDS011;3793;48.136;11.536;2022-12-11T07:45:36;19.17;;;11.83;;
7503;SDS011;3793;48.136;11.536;2022-12-11T07:48:02;20.67;;;12.60;;
7503;SDS011;3793;48.136;11.536;2022-12-11T07:50:29;22.47;;;14.10;;
7503;SDS011;3793;48.136;11.536;2022-12-11T07:52:55;23.13;;;13.73;;
7503;SDS011;3793;48.136;11.536;2022-12-11T07:55:23;23.83;;;13.23;;
7503;SDS011;3793;48.136;11.536;2022-12-11T07:57:50;19.33;;;13.10;;
7503;SDS011;3793;48.136;11.536;2022-12-11T08:00:17;20.87;;;13.43;;
7503;SDS011;3793;48.136;11.536;2022-12-11T08:02:43;21.83;;;13.07;;
7503;SDS011;3793;48.136;11.536;2022-12-11T08:05:10;21.50;;;13.40;;
7503;SDS011;3793;48.136;11.536;2022-12-11T08:07:37;22.53;;;14.60;;
7503;SDS011;3793;48.136;11.536;2022-12-11T08:10:04;20.63;;;13.73;;
7503;SDS011;3793;48.136;11.536;2022-12-11T08:12:32;23.83;;;14.03;;
7503;SDS011;3793;48.136;11.536;2022-12-11T08:14:58;20.77;;;12.67;;
7503;SDS011;3793;48.136;11.536;2022-12-11T08:17:25;22.17;;;14.10;;
7503;SDS011;3793;48.136;11.536;2022-12-11T08:19:52;22.63;;;13.77;;
7503;SDS011;3793;48.136;11.536;2022-12-11T08:22:18;21.10;;;13.00;;
7503;SDS011;3793;48.136;11.536;2022-12-11T08:24:45;23.13;;;13.50;;
7503;SDS011;3793;48.136;11.536;2022-12-11T08:27:12;19.63;;;13.33;;
7503;SDS011;3793;48.136;11.536;2022-12-11T08:29:40;22.57;;;14.20;;
7503;SDS011;3793;48.136;11.536;2022-12-11T08:32:06;21.43;;;14.43;;
7503;SDS011;3793;48.136;11.536;2022-12-11T08:34:33;21.93;;;14.33;;
7503;SDS011;3793;48.136;11.536;2022-12-11T08:36:59;20.30;;;13.20;;
7503;SDS011;3793;48.136;11.536;2022-12-11T08:39:26;24.07;;;14.80;;
7503;SDS011;3793;48.136;11.536;2022-12-11T08:41:52;22.13;;;13.13;;
7503;SDS011;3793;48.136;11.536;2022-12-11T08:44:19;19.27;;;12.63;;
7503;SDS011;3793;48.136;11.536;2022-12-11T08:46:50;19.10;;;13.30;;
7503;SDS011;3793;48.136;11.536;2022-12-11T08:49:17;20.00;;;13.00;;
7503;SDS011;3793;48.136;11.536;2022-12-11T08:51:43;22.90;;;13.60;;
7503;SDS011;3793;48.136;11.536;2022-12-11T08:54:10;20.93;;;12.60;;
7503;SDS011;3793;48.136;11.536;2022-12-11T08:56:36;16.90;;;11.50;;
7503;SDS011;3793;48.136;11.536;2022-12-11T08:59:03;19.60;;;12.67;;
7503;SDS011;3793;48.136;11.536;2022-12-11T09:01:31;18.73;;;11.37;;
7503;SDS011;3793;48.136;11.536;2022-12-11T09:04:01;17.10;;;11.03;;
7503;SDS011;3793;48.136;11.536;2022-12-11T09:06:29;16.57;;;12.10;;
7503;SDS011;3793;48.136;11.536;2022-12-11T09:08:57;18.50;;;11.37;;
7503;SDS011;3793;48.136;11.536;2022-12-11T09:11:24;18.20;;;11.40;;
7503;SDS011;3793;48.136;11.536;2022-12-11T09:13:51;17.03;;;11.77;;
7503;SDS011;3793;48.136;11.536;2022-12-11T09:16:19;17.43;;;11.70;;
7503;SDS011;3793;48.136;11.536;2022-12-11T09:18:46;15.80;;;11.30;;
7503;SDS011;3793;48.136;11.536;2022-12-11T09:21:15;17.87;;;12.03;;
7503;SDS011;3793;48.136;11.536;2022-12-11T09:23:42;15.67;;;11.20;;
7503;SDS011;3793;48.136;11.536;2022-12-11T09:26:09;16.13;;;10.47;;
7503;SDS011;3793;48.136;11.536;2022-12-11T09:28:36;14.17;;;9.10;;
7503;SDS011;3793;48.136;11.536;2022-12-11T09:31:07;13.53;;;9.23;;
7503;SDS011;3793;48.136;11.536;2022-12-11T09:33:33;13.60;;;9.93;;
7503;SDS011;3793;48.136;11.536;2022-12-11T09:36:01;12.77;;;8.77;;
7503;SDS011;3793;48.136;11.536;2022-12-11T09:38:37;12.97;;;9.20;;
7503;SDS011;3793;48.136;11.536;2022-12-11T09:41:14;13.63;;;8.73;;
7503;SDS011;3793;48.136;11.536;2022-12-11T09:43:43;19.00;;;10.27;;
7503;SDS011;3793;48.136;11.536;2022-12-11T09:46:12;14.37;;;9.63;;
7503;SDS011;3793;48.136;11.536;2022-12-11T09:48:39;12.70;;;9.90;;
7503;SDS011;3793;48.136;11.536;2022-12-11T09:51:10;15.10;;;9.47;;
7503;SDS011;3793;48.136;11.536;2022-12-11T09:53:41;12.33;;;9.00;;
7503;SDS011;3793;48.136;11.536;2022-12-11T09:56:11;14.37;;;9.30;;
7503;SDS011;3793;48.136;11.536;2022-12-11T09:58:49;13.13;;;9.63;;
7503;SDS011;3793;48.136;11.536;2022-12-11T10:01:20;12.33;;;8.33;;
7503;SDS011;3793;48.136;11.536;2022-12-11T10:03:58;12.47;;;8.23;;
7503;SDS011;3793;48.136;11.536;2022-12-11T10:06:31;28.60;;;20.63;;
7503;SDS011;3793;48.136;11.536;2022-12-11T10:09:02;13.27;;;9.37;;
7503;SDS011;3793;48.136;11.536;2022-12-11T10:11:35;11.90;;;8.33;;
7503;SDS011;3793;48.136;11.536;2022-12-11T10:14:05;12.90;;;8.63;;
7503;SDS011;3793;48.136;11.536;2022-12-11T10:16:34;12.10;;;8.33;;
7503;SDS011;3793;48.136;11.536;2022-12-11T10:19:01;12.10;;;8.43;;
7503;SDS011;3793;48.136;11.536;2022-12-11T10:21:29;12.30;;;8.10;;
7503;SDS011;3793;48.136;11.536;2022-12-11T10:24:01;10.77;;;8.60;;
7503;SDS011;3793;48.136;11.536;2022-12-11T10:26:30;12.90;;;9.70;;
7503;SDS011;3793;48.136;11.536;2022-12-11T10:28:56;11.63;;;8.63;;
7503;SDS011;3793;48.136;11.536;2022-12-11T10:31:26;13.93;;;9.47;;
7503;SDS011;3793;48.136;11.536;2022-12-11T10:33:57;14.83;;;10.03;;
7503;SDS011;3793;48.136;11.536;2022-12-11T10:36:27;12.60;;;8.83;;
7503;SDS011;3793;48.136;11.536;2022-12-11T10:38:54;14.53;;;9.30;;
7503;SDS011;3793;48.136;11.536;2022-12-11T10:41:23;12.00;;;8.83;;
7503;SDS011;3793;48.136;11.536;2022-12-11T10:43:50;14.40;;;10.10;;
7503;SDS011;3793;48.136;11.536;2022-12-11T10:46:18;14.37;;;9.50;;
7503;SDS011;3793;48.136;11.536;2022-12-11T10:48:45;12.97;;;9.57;;
7503;SDS011;3793;48.136;11.536;2022-12-11T10:51:12;13.67;;;9.30;;
7503;SDS011;3793;48.136;11.536;2022-12-11T10:53:39;15.27;;;9.97;;
7503;SDS011;3793;48.136;11.536;2022-12-11T10:56:07;11.67;;;8.80;;
7503;SDS011;3793;48.136;11.536;2022-12-11T10:58:36;14.40;;;9.67;;
7503;SDS011;3793;48.136;11.536;2022-12-11T11:01:07;14.10;;;9.60;;
7503;SDS011;3793;48.136;11.536;2022-12-11T11:03:34;12.47;;;9.23;;
7503;SDS011;3793;48.136;11.536;2022-12-11T11:06:03;13.60;;;8.80;;
7503;SDS011;3793;48.136;11.536;2022-12-11T11:08:36;10.60;;;8.63;;
7503;SDS011;3793;48.136;11.536;2022-12-11T11:11:03;11.60;;;8.47;;
7503;SDS011;3793;48.136;11.536;2022-12-11T11:13:30;11.73;;;8.60;;
7503;SDS011;3793;48.136;11.536;2022-12-11T11:15:58;25.13;;;17.40;;
7503;SDS011;3793;48.136;11.536;2022-12-11T11:18:26;27.00;;;20.20;;
7503;SDS011;3793;48.136;11.536;2022-12-11T11:20:53;13.90;;;9.57;;
7503;SDS011;3793;48.136;11.536;2022-12-11T11:23:20;12.20;;;8.93;;
7503;SDS011;3793;48.136;11.536;2022-12-11T11:25:48;10.80;;;8.17;;
7503;SDS011;3793;48.136;11.536;2022-12-11T11:28:16;13.97;;;9.63;;
7503;SDS011;3793;48.136;11.536;2022-12-11T11:30:53;12.57;;;9.10;;
7503;SDS011;3793;48.136;11.536;2022-12-11T11:33:21;10.73;;;8.27;;
7503;SDS011;3793;48.136;11.536;2022-12-11T11:35:50;11.07;;;8.20;;
7503;SDS011;3793;48.136;11.536;2022-12-11T11:38:18;9.60;;;6.70;;
7503;SDS011;3793;48.136;11.536;2022-12-11T11:40:46;12.73;;;7.73;;
7503;SDS011;3793;48.136;11.536;2022-12-11T11:43:16;12.63;;;8.33;;
7503;SDS011;3793;48.136;11.536;2022-12-11T11:45:45;10.57;;;8.33;;
7503;SDS011;3793;48.136;11.536;2022-12-11T11:48:20;9.90;;;7.53;;
7503;SDS011;3793;48.136;11.536;2022-12-11T11:50:51;9.50;;;7.30;;
7503;SDS011;3793;48.136;11.536;2022-12-11T11:53:19;10.30;;;7.50;;
7503;SDS011;3793;48.136;11.536;2022-12-11T11:55:50;9.47;;;6.53;;
7503;SDS011;3793;48.136;11.536;2022-12-11T11:58:20;10.23;;;7.33;;
7503;SDS011;3793;48.136;11.536;2022-12-11T12:00:49;9.50;;;7.07;;
7503;SDS011;3793;48.136;11.536;2022-12-11T12:03:18;11.77;;;9.33;;
7503;SDS011;3793;48.136;11.536;2022-12-11T12:05:54;11.33;;;9.17;;
7503;SDS011;3793;48.136;11.536;2022-12-11T12:08:26;9.47;;;7.43;;
7503;SDS011;3793;48.136;11.536;2022-12-11T12:10:56;10.70;;;7.47;;
7503;SDS011;3793;48.136;11.536;2022-12-11T12:13:25;30.83;;;18.80;;
7503;SDS011;3793;48.136;11.536;2022-12-11T12:15:56;9.87;;;7.13;;
7503;SDS011;3793;48.136;11.536;2022-12-11T12:18:27;9.13;;;6.97;;
7503;SDS011;3793;48.136;11.536;2022-12-11T12:21:02;10.17;;;6.37;;
7503;SDS011;3793;48.136;11.536;2022-12-11T12:23:34;10.27;;;7.03;;
7503;SDS011;3793;48.136;11.536;2022-12-11T12:26:05;9.30;;;6.67;;
7503;SDS011;3793;48.136;11.536;2022-12-11T12:28:36;8.67;;;6.30;;
7503;SDS011;3793;48.136;11.536;2022-12-11T12:31:08;10.37;;;6.60;;
7503;SDS011;3793;48.136;11.536;2022-12-11T12:33:39;8.40;;;6.47;;
7503;SDS011;3793;48.136;11.536;2022-12-11T12:36:15;7.87;;;6.23;;
7503;SDS011;3793;48.136;11.536;2022-12-11T12:38:45;9.47;;;6.40;;
7503;SDS011;3793;48.136;11.536;2022-12-11T12:41:16;10.63;;;6.80;;
7503;SDS011;3793;48.136;11.536;2022-12-11T12:43:46;9.53;;;6.27;;
7503;SDS011;3793;48.136;11.536;2022-12-11T12:46:20;9.17;;;6.37;;
7503;SDS011;3793;48.136;11.536;2022-12-11T12:48:49;9.83;;;6.60;;
7503;SDS011;3793;48.136;11.536;2022-12-11T12:51:18;8.93;;;6.50;;
7503;SDS011;3793;48.136;11.536;2022-12-11T12:53:46;9.97;;;6.33;;
7503;SDS011;3793;48.136;11.536;2022-12-11T12:56:13;7.60;;;5.53;;
7503;SDS011;3793;48.136;11.536;2022-12-11T12:58:41;10.20;;;6.70;;
7503;SDS011;3793;48.136;11.536;2022-12-11T13:01:09;8.80;;;5.83;;
7503;SDS011;3793;48.136;11.536;2022-12-11T13:03:48;8.17;;;6.20;;
7503;SDS011;3793;48.136;11.536;2022-12-11T13:06:15;8.93;;;6.17;;
7503;SDS011;3793;48.136;11.536;2022-12-11T13:08:45;8.90;;;6.87;;
7503;SDS011;3793;48.136;11.536;2022-12-11T13:11:12;8.30;;;6.50;;
7503;SDS011;3793;48.136;11.536;2022-12-11T13:13:41;9.47;;;7.07;;
7503;SDS011;3793;48.136;11.536;2022-12-11T13:16:22;25.30;;;16.70;;
7503;SDS011;3793;48.136;11.536;2022-12-11T13:18:49;9.70;;;7.20;;
7503;SDS011;3793;48.136;11.536;2022-12-11T13:21:27;9.77;;;6.63;;
7503;SDS011;3793;48.136;11.536;2022-12-11T13:23:55;10.37;;;6.83;;
7503;SDS011;3793;48.136;11.536;2022-12-11T13:26:37;9.03;;;5.90;;
7503;SDS011;3793;48.136;11.536;2022-12-11T13:29:04;7.33;;;5.70;;
7503;SDS011;3793;48.136;11.536;2022-12-11T13:31:32;7.47;;;5.87;;
7503;SDS011;3793;48.136;11.536;2022-12-11T13:34:05;7.30;;;5.40;;
7503;SDS011;3793;48.136;11.536;2022-12-11T13:36:46;7.40;;;5.17;;
7503;SDS011;3793;48.136;11.536;2022-12-11T13:39:16;8.63;;;6.13;;
7503;SDS011;3793;48.136;11.536;2022-12-11T13:41:44;8.97;;;6.07;;
7503;SDS011;3793;48.136;11.536;2022-12-11T13:44:12;8.33;;;5.63;;
7503;SDS011;3793;48.136;11.536;2022-12-11T13:46:41;7.13;;;5.50;;
7503;SDS011;3793;48.136;11.536;2022-12-11T13:49:16;11.70;;;5.80;;
7503;SDS011;3793;48.136;11.536;2022-12-11T13:51:50;6.93;;;4.87;;
7503;SDS011;3793;48.136;11.536;2022-12-11T13:54:18;7.53;;;5.70;;
7503;SDS011;3793;48.136;11.536;2022-12-11T13:56:54;6.77;;;4.83;;
7503;SDS011;3793;48.136;11.536;2022-12-11T13:59:23;6.87;;;4.60;;
7503;SDS011;3793;48.136;11.536;2022-12-11T14:01:50;6.73;;;4.60;;
7503;SDS011;3793;48.136;11.536;2022-12-11T14:04:19;6.37;;;4.63;;
7503;SDS011;3793;48.136;11.536;2022-12-11T14:06:47;7.73;;;5.07;;
7503;SDS011;3793;48.136;11.536;2022-12-11T14:09:14;6.70;;;5.03;;
7503;SDS011;3793;48.136;11.536;2022-12-11T14:11:44;8.03;;;4.50;;
7503;SDS011;3793;48.136;11.536;2022-12-11T14:14:14;7.37;;;4.90;;
7503;SDS011;3793;48.136;11.536;2022-12-11T14:16:42;7.27;;;4.67;;
7503;SDS011;3793;48.136;11.536;2022-12-11T14:19:08;9.13;;;5.50;;
7503;SDS011;3793;48.136;11.536;2022-12-11T14:21:35;9.20;;;5.70;;
7503;SDS011;3793;48.136;11.536;2022-12-11T14:24:02;7.93;;;5.30;;
7503;SDS011;3793;48.136;11.536;2022-12-11T14:26:30;9.57;;;6.50;;
7503;SDS011;3793;48.136;11.536;2022-12-11T14:28:59;6.57;;;5.57;;
7503;SDS011;3793;48.136;11.536;2022-12-11T14:31:28;7.23;;;5.33;;
7503;SDS011;3793;48.136;11.536;2022-12-11T14:33:56;7.70;;;5.23;;
7503;SDS011;3793;48.136;11.536;2022-12-11T14:36:26;7.43;;;5.73;;
7503;SDS011;3793;48.136;11.536;2022-12-11T14:38:53;6.87;;;5.17;;
7503;SDS011;3793;48.136;11.536;2022-12-11T14:41:22;8.00;;;5.07;;
7503;SDS011;3793;48.136;11.536;2022-12-11T14:43:50;8.20;;;5.77;;
7503;SDS011;3793;48.136;11.536;2022-12-11T14:46:21;8.37;;;5.63;;
7503;SDS011;3793;48.136;11.536;2022-12-11T14:48:49;9.53;;;6.90;;